Parkrose, Oregon
Current Conditions -  °F | °C
As of 4:53 PM on Sunday 23 Nov 2014 (Local Time) from KTTD Reporting Station
Light Rain Light Rain  
Wind Chill: 50°   Ceiling: 1300
Heat Index: 50°   Visibility: 8mi
Dew Point: 48°   Wind: 5mph
Humidity: 93%   Direction: 360°N
Pressure: 30.28"   Gusts: NA
Location:  45.5423°N, 122.5°W
Report Text: KTTD 240053Z 36004KT 8SM -RA BKN013 BKN041 OVC055 10/09 A3028 RMK AO2 RAE06B29 SLP254 P0001 T01000089
Loading
Personal Weather Stations






























Interactive Weather Map New forecast layout! Learn more

10-Day Weather Forecast

Advertisements
Track Severe Weather on mobile